Terminal Aerodrome Forecast
Issued by NWS

Home | Current Version | Previous Version | Text Only | Print | Product List | Glossary On
Versions: 1 2 3 4 5 6 7 8 9 10 11 12 13 14 15 16 17 18 19 20 21 22 23 24 25 26
000
FTUS43 KMQT 182300
TAFSAW
TAF
KSAW 182335Z 1900/1924 05007KT P6SM SKC
     FM190130 00000KT P6SM SKC
     FM190500 00000KT 3SM BR SCT200
     FM191100 14007KT P6SM BKN080
     FM191600 16017G25KT P6SM BKN060
      AMD LTD TO CLD VIS AND WIND 1902/1910=

USA.gov is the U.S. government's official web portal to all federal, state and local government web resources and services.